createdAt,value
2018-02-08T00:01:09.959Z,75.41
2018-02-08T00:03:37.469Z,75.48
2018-02-08T00:06:05.145Z,75.10
2018-02-08T00:08:32.677Z,75.26
2018-02-08T00:11:00.201Z,75.31
2018-02-08T00:13:27.781Z,75.12
2018-02-08T00:15:55.312Z,75.42
2018-02-08T00:18:22.846Z,75.40
2018-02-08T00:20:50.398Z,75.31
2018-02-08T00:23:17.938Z,75.53
2018-02-08T00:25:45.516Z,75.66
2018-02-08T00:28:13.037Z,75.77
2018-02-08T00:30:40.562Z,75.93
2018-02-08T00:33:08.119Z,76.06
2018-02-08T00:35:35.632Z,76.17
2018-02-08T00:38:03.158Z,76.27
2018-02-08T00:40:30.719Z,76.23
2018-02-08T00:42:58.430Z,76.22
2018-02-08T00:45:25.967Z,76.22
2018-02-08T00:47:53.495Z,76.41
2018-02-08T00:50:21.047Z,76.44
2018-02-08T00:52:48.569Z,76.50
2018-02-08T00:55:16.148Z,76.39
2018-02-08T00:57:43.681Z,76.28
2018-02-08T01:00:11.257Z,76.42
2018-02-08T01:02:38.800Z,76.67
2018-02-08T01:05:06.321Z,76.86
2018-02-08T01:07:33.847Z,76.86
2018-02-08T01:10:01.392Z,76.90
2018-02-08T01:12:28.916Z,76.71
2018-02-08T01:14:56.484Z,76.64
2018-02-08T01:17:24.006Z,76.61
2018-02-08T01:19:51.551Z,76.33
2018-02-08T01:22:19.120Z,76.37
2018-02-08T01:24:46.653Z,76.39
2018-02-08T01:27:14.198Z,76.37
2018-02-08T01:29:41.867Z,76.43
2018-02-08T01:32:09.388Z,76.50
2018-02-08T01:34:36.920Z,76.61
2018-02-08T01:37:04.441Z,76.83
2018-02-08T01:39:31.991Z,76.90
2018-02-08T01:41:59.773Z,76.74
2018-02-08T01:44:27.323Z,76.94
2018-02-08T01:46:54.893Z,76.95
2018-02-08T01:49:34.296Z,76.87
2018-02-08T01:52:01.847Z,77.05
2018-02-08T01:54:29.392Z,77.12
2018-02-08T01:56:56.942Z,77.11
2018-02-08T01:59:24.524Z,77.11
2018-02-08T02:01:52.087Z,77.09
2018-02-08T02:04:19.620Z,76.93
2018-02-08T02:06:47.153Z,76.98
2018-02-08T02:09:14.695Z,77.17
2018-02-08T02:11:42.280Z,77.18
2018-02-08T02:14:09.863Z,76.54
2018-02-08T02:16:37.506Z,76.48
2018-02-08T02:19:05.057Z,76.23
2018-02-08T02:21:32.712Z,76.49
2018-02-08T02:24:00.229Z,76.40
2018-02-08T02:26:27.821Z,76.24
2018-02-08T02:28:55.366Z,76.08
2018-02-08T02:31:22.893Z,76.09
2018-02-08T02:33:50.465Z,76.00
2018-02-08T02:36:18.013Z,75.85
2018-02-08T02:38:45.715Z,75.70
2018-02-08T02:41:13.283Z,75.65
2018-02-08T02:43:40.813Z,75.57
2018-02-08T02:46:08.495Z,75.38
2018-02-08T02:48:36.022Z,75.42
2018-02-08T02:51:03.585Z,75.23
2018-02-08T02:53:31.156Z,75.27
2018-02-08T02:55:58.738Z,75.06
2018-02-08T02:58:26.298Z,74.94
2018-02-08T03:00:53.828Z,75.01
2018-02-08T03:03:21.434Z,74.88
2018-02-08T03:05:48.977Z,74.86
2018-02-08T03:08:16.542Z,74.76
2018-02-08T03:10:44.091Z,74.71
2018-02-08T03:13:11.683Z,74.54
2018-02-08T03:15:39.260Z,74.32
2018-02-08T03:18:06.871Z,74.54
2018-02-08T03:20:34.423Z,74.19
2018-02-08T03:23:02.001Z,74.19
2018-02-08T03:25:29.549Z,74.33
2018-02-08T03:27:57.077Z,74.45
2018-02-08T03:30:36.348Z,74.31
2018-02-08T03:33:03.892Z,74.07
2018-02-08T03:35:31.465Z,74.15
2018-02-08T03:37:59.021Z,73.93
2018-02-08T03:40:26.547Z,73.81
2018-02-08T03:42:54.100Z,73.84
2018-02-08T03:45:21.621Z,73.88
2018-02-08T03:47:49.142Z,73.99
2018-02-08T03:50:16.720Z,73.91
2018-02-08T03:52:44.309Z,73.73
2018-02-08T03:55:11.865Z,73.76
2018-02-08T03:57:39.445Z,73.62
2018-02-08T04:00:06.989Z,73.60
2018-02-08T04:02:34.535Z,73.47
2018-02-08T04:05:02.098Z,73.24
2018-02-08T04:07:29.613Z,73.22
2018-02-08T04:09:57.208Z,73.27
2018-02-08T04:12:24.749Z,73.40
2018-02-08T04:14:52.296Z,73.55
2018-02-08T04:17:19.877Z,73.37
2018-02-08T04:19:47.403Z,73.53
2018-02-08T04:22:14.947Z,73.75
2018-02-08T04:24:42.504Z,73.85
2018-02-08T04:27:10.056Z,73.96
2018-02-08T04:29:37.691Z,73.94
2018-02-08T04:32:05.226Z,74.00
2018-02-08T04:34:32.761Z,74.12
2018-02-08T04:37:00.288Z,74.12
2018-02-08T04:39:39.609Z,74.22
2018-02-08T04:42:19.100Z,74.25
2018-02-08T04:44:58.481Z,74.26
2018-02-08T04:47:43.569Z,74.93
2018-02-08T04:50:11.110Z,74.19
2018-02-08T04:52:38.650Z,74.31
2018-02-08T04:55:06.252Z,74.21
2018-02-08T04:57:33.803Z,74.09
2018-02-08T05:00:01.347Z,74.09
2018-02-08T05:02:28.892Z,74.15
2018-02-08T05:04:56.438Z,74.24
2018-02-08T05:07:23.990Z,74.32
2018-02-08T05:09:51.514Z,74.48
2018-02-08T05:12:19.036Z,74.33
2018-02-08T05:14:46.580Z,74.08
2018-02-08T05:17:14.115Z,74.01
2018-02-08T05:19:41.649Z,74.03
2018-02-08T05:22:09.214Z,74.11
2018-02-08T05:24:36.724Z,74.26
2018-02-08T05:27:04.293Z,74.42
2018-02-08T05:29:32.024Z,74.52
2018-02-08T05:31:59.572Z,74.63
2018-02-08T05:34:27.116Z,74.68
2018-02-08T05:36:54.742Z,74.54
2018-02-08T05:39:22.305Z,74.38
2018-02-08T05:41:49.843Z,74.32
2018-02-08T05:44:17.392Z,74.28
2018-02-08T05:46:44.933Z,74.44
2018-02-08T05:49:12.456Z,74.55
2018-02-08T05:51:39.974Z,74.60
2018-02-08T05:54:07.533Z,74.72
2018-02-08T05:56:35.081Z,74.77
2018-02-08T05:59:02.609Z,74.90
2018-02-08T06:01:30.142Z,74.79
2018-02-08T06:03:57.763Z,74.84
2018-02-08T06:06:25.340Z,74.75
2018-02-08T06:08:52.852Z,74.88
2018-02-08T06:11:20.391Z,74.98
2018-02-08T06:13:47.940Z,75.13
2018-02-08T06:16:15.492Z,75.27
2018-02-08T06:18:43.021Z,75.31
2018-02-08T06:21:10.585Z,75.53
2018-02-08T06:23:38.136Z,75.56
2018-02-08T06:26:05.695Z,75.76
2018-02-08T06:28:33.250Z,75.92
2018-02-08T06:31:00.792Z,76.10
2018-02-08T06:33:28.320Z,76.21
2018-02-08T06:35:55.856Z,76.31
2018-02-08T06:38:23.419Z,76.01
2018-02-08T06:40:50.956Z,76.19
2018-02-08T06:43:18.497Z,76.36
2018-02-08T06:45:46.172Z,76.38
2018-02-08T06:48:13.712Z,76.26
2018-02-08T06:50:41.261Z,76.08
2018-02-08T06:53:08.813Z,76.07
2018-02-08T06:55:36.363Z,75.77
2018-02-08T06:58:03.916Z,75.96
2018-02-08T07:00:31.540Z,76.12
2018-02-08T07:02:59.304Z,76.08
2018-02-08T07:05:26.839Z,75.71
2018-02-08T07:07:54.372Z,75.49
2018-02-08T07:10:21.926Z,75.42
2018-02-08T07:12:49.444Z,75.27
2018-02-08T07:15:17.249Z,75.14
2018-02-08T07:17:44.868Z,75.25
2018-02-08T07:20:12.387Z,75.35
2018-02-08T07:22:39.908Z,75.08
2018-02-08T07:25:07.497Z,75.01
2018-02-08T07:27:35.172Z,74.91
2018-02-08T07:30:02.714Z,74.98
2018-02-08T07:32:30.316Z,74.46
2018-02-08T07:34:57.956Z,74.45
2018-02-08T07:37:26.167Z,74.14
2018-02-08T07:39:53.710Z,73.77
2018-02-08T07:42:21.276Z,73.83
2018-02-08T07:44:48.825Z,73.55
2018-02-08T07:47:16.384Z,73.36
2018-02-08T07:49:44.046Z,73.36
2018-02-08T07:52:11.570Z,73.08
2018-02-08T07:54:39.137Z,72.98
2018-02-08T07:57:06.704Z,72.65
2018-02-08T07:59:34.228Z,72.38
2018-02-08T08:02:01.796Z,72.08
2018-02-08T08:04:29.339Z,71.71
2018-02-08T08:06:56.963Z,71.63
2018-02-08T08:09:24.492Z,71.52
2018-02-08T08:11:52.062Z,71.09
2018-02-08T08:14:19.586Z,70.94
2018-02-08T08:16:47.125Z,70.48
2018-02-08T08:19:14.696Z,70.11
2018-02-08T08:21:42.504Z,70.37
2018-02-08T08:24:10.082Z,69.71
2018-02-08T08:26:37.664Z,69.03
2018-02-08T08:29:05.180Z,68.26
2018-02-08T08:31:32.750Z,67.73
2018-02-08T08:34:00.348Z,67.64
2018-02-08T08:36:27.893Z,67.69
2018-02-08T08:38:55.466Z,66.83
2018-02-08T08:41:22.982Z,65.81
2018-02-08T08:43:50.517Z,66.02
2018-02-08T08:46:18.073Z,65.68
2018-02-08T08:48:45.581Z,65.17
2018-02-08T08:51:13.100Z,64.64
2018-02-08T08:53:40.642Z,63.70
2018-02-08T08:56:08.184Z,63.69
2018-02-08T08:58:35.932Z,63.74
2018-02-08T09:01:03.475Z,64.10
2018-02-08T09:03:31.052Z,63.24
2018-02-08T09:05:58.573Z,62.98
2018-02-08T09:08:26.172Z,63.01
2018-02-08T09:10:53.864Z,63.01
2018-02-08T09:13:21.493Z,62.83
2018-02-08T09:15:49.036Z,62.50
2018-02-08T09:18:16.612Z,62.23
2018-02-08T09:20:44.141Z,62.89
2018-02-08T09:23:11.752Z,62.09
2018-02-08T09:25:39.290Z,61.41
2018-02-08T09:28:06.821Z,61.58
2018-02-08T09:30:35.198Z,61.28
2018-02-08T09:33:02.753Z,60.52
2018-02-08T09:35:30.346Z,60.77
2018-02-08T09:37:58.011Z,60.56
2018-02-08T09:40:25.549Z,60.73
2018-02-08T09:42:53.084Z,60.69
2018-02-08T09:45:20.876Z,59.82
2018-02-08T09:47:48.441Z,60.52
2018-02-08T09:50:15.958Z,60.58
2018-02-08T09:52:43.488Z,60.64
2018-02-08T09:55:11.045Z,59.98
2018-02-08T09:57:38.580Z,60.11
2018-02-08T10:00:06.089Z,59.80
2018-02-08T10:02:33.632Z,58.87
2018-02-08T10:05:01.169Z,59.05
2018-02-08T10:07:28.705Z,59.01
2018-02-08T10:09:56.242Z,59.87
2018-02-08T10:12:23.828Z,57.86
2018-02-08T10:14:51.482Z,57.77
2018-02-08T10:17:19.012Z,57.19
2018-02-08T10:19:46.529Z,56.43
2018-02-08T10:22:14.051Z,56.71
2018-02-08T10:24:41.557Z,57.16
2018-02-08T10:27:09.177Z,56.76
2018-02-08T10:29:36.686Z,56.57
2018-02-08T10:32:04.282Z,56.87
2018-02-08T10:34:31.811Z,56.76
2018-02-08T10:36:59.333Z,56.80
2018-02-08T10:39:26.893Z,56.52
2018-02-08T10:41:54.412Z,55.31
2018-02-08T10:44:21.943Z,55.51
2018-02-08T10:46:49.495Z,55.62
2018-02-08T10:49:17.011Z,55.43
2018-02-08T10:51:44.564Z,55.47
2018-02-08T10:54:12.133Z,55.24
2018-02-08T10:56:39.660Z,54.89
2018-02-08T10:59:07.252Z,54.10
2018-02-08T11:01:34.782Z,54.61
2018-02-08T11:04:02.317Z,53.29
2018-02-08T11:06:29.840Z,52.80
2018-02-08T11:08:57.386Z,52.77
2018-02-08T11:11:24.922Z,51.68
2018-02-08T11:13:52.433Z,51.21
2018-02-08T11:16:20.024Z,51.40
2018-02-08T11:18:47.526Z,51.18
2018-02-08T11:21:15.062Z,51.15
2018-02-08T11:23:42.590Z,50.97
2018-02-08T11:26:10.147Z,50.65
2018-02-08T11:28:37.678Z,50.62
2018-02-08T11:31:05.193Z,50.38
2018-02-08T11:33:32.866Z,50.84
2018-02-08T11:36:00.397Z,50.79
2018-02-08T11:38:28.003Z,50.29
2018-02-08T11:40:55.781Z,50.48
2018-02-08T11:43:23.285Z,50.36
2018-02-08T11:45:50.790Z,49.82
2018-02-08T11:48:18.338Z,48.80
2018-02-08T11:50:45.924Z,48.38
2018-02-08T11:53:13.465Z,48.01
2018-02-08T11:55:41.038Z,48.39
2018-02-08T11:58:08.809Z,49.22
2018-02-08T12:00:36.318Z,49.38
2018-02-08T12:03:03.825Z,49.12
2018-02-08T12:05:31.376Z,50.01
2018-02-08T12:07:58.892Z,50.19
2018-02-08T12:10:26.486Z,50.59
2018-02-08T12:12:54.045Z,49.26
2018-02-08T12:15:21.611Z,49.56
2018-02-08T12:17:49.145Z,49.36
2018-02-08T12:20:16.730Z,48.73
2018-02-08T12:22:44.260Z,49.14
2018-02-08T12:25:11.770Z,48.93
2018-02-08T12:27:39.329Z,48.61
2018-02-08T12:30:06.861Z,48.34
2018-02-08T12:32:34.374Z,48.46
2018-02-08T12:35:02.097Z,48.84
2018-02-08T12:37:29.606Z,48.39
2018-02-08T12:39:57.132Z,48.15
2018-02-08T12:42:24.681Z,48.15
2018-02-08T12:44:52.208Z,48.37
2018-02-08T12:47:19.717Z,48.38
2018-02-08T12:49:47.280Z,48.09
2018-02-08T12:52:14.803Z,47.41
2018-02-08T12:54:42.333Z,47.17
2018-02-08T12:57:09.856Z,46.72
2018-02-08T12:59:37.357Z,46.98
2018-02-08T13:02:04.920Z,47.13
2018-02-08T13:04:32.512Z,47.17
2018-02-08T13:07:00.044Z,47.15
2018-02-08T13:09:27.593Z,46.85
2018-02-08T13:11:55.129Z,47.25
2018-02-08T13:14:22.664Z,47.08
2018-02-08T13:16:50.173Z,47.47
2018-02-08T13:19:17.766Z,47.52
2018-02-08T13:21:45.301Z,47.13
2018-02-08T13:24:12.839Z,47.04
2018-02-08T13:26:40.550Z,46.76
2018-02-08T13:29:08.072Z,47.22
2018-02-08T13:31:36.366Z,47.25
2018-02-08T13:34:03.887Z,47.32
2018-02-08T13:36:42.229Z,46.89
2018-02-08T13:39:15.173Z,46.61
2018-02-08T13:41:42.736Z,47.16
2018-02-08T13:44:10.263Z,47.14
2018-02-08T13:46:37.768Z,47.24
2018-02-08T13:49:06.191Z,48.50
2018-02-08T13:51:36.565Z,47.31
2018-02-08T13:54:09.719Z,47.60
2018-02-08T13:56:42.847Z,47.64
2018-02-08T13:59:12.284Z,47.57
2018-02-08T14:01:41.572Z,47.75
2018-02-08T14:04:09.081Z,47.80
2018-02-08T14:06:36.641Z,47.58
2018-02-08T14:09:04.186Z,47.54
2018-02-08T14:11:31.736Z,47.65
2018-02-08T14:13:59.258Z,47.89
2018-02-08T14:16:26.788Z,48.19
2018-02-08T14:18:54.473Z,47.93
2018-02-08T14:21:21.992Z,48.12
2018-02-08T14:23:49.520Z,48.65
2018-02-08T14:26:17.249Z,48.17
2018-02-08T14:28:44.781Z,48.64
2018-02-08T14:31:12.358Z,48.85
2018-02-08T14:33:39.900Z,49.04
2018-02-08T14:36:07.417Z,49.45
2018-02-08T14:38:35.054Z,49.55
2018-02-08T14:41:02.801Z,49.12
2018-02-08T14:43:31.274Z,49.00
2018-02-08T14:45:58.782Z,49.36
2018-02-08T14:48:26.328Z,49.97
2018-02-08T14:50:53.932Z,49.97
2018-02-08T14:53:21.444Z,49.91
2018-02-08T14:55:48.993Z,49.75
2018-02-08T14:58:16.622Z,49.95
2018-02-08T15:00:44.133Z,49.59
2018-02-08T15:03:11.664Z,49.85
2018-02-08T15:05:39.220Z,50.08
2018-02-08T15:08:06.762Z,50.22
2018-02-08T15:10:34.345Z,50.07
2018-02-08T15:13:01.862Z,50.25
2018-02-08T15:15:29.443Z,50.75
2018-02-08T15:17:56.922Z,50.90
2018-02-08T15:20:24.446Z,51.04
2018-02-08T15:22:51.970Z,50.94
2018-02-08T15:25:19.500Z,51.07
2018-02-08T15:27:47.023Z,51.08
2018-02-08T15:30:14.627Z,51.12
2018-02-08T15:32:42.294Z,51.06
2018-02-08T15:35:09.824Z,51.54
2018-02-08T15:37:37.356Z,51.70
2018-02-08T15:40:04.931Z,51.93
2018-02-08T15:42:32.465Z,52.01
2018-02-08T15:45:00.018Z,52.19
2018-02-08T15:47:27.664Z,52.35
2018-02-08T15:49:55.165Z,52.43
2018-02-08T15:52:22.678Z,52.80
2018-02-08T15:54:50.313Z,53.23
2018-02-08T15:57:17.830Z,53.26
2018-02-08T15:59:45.445Z,53.48
2018-02-08T16:02:13.016Z,53.61
2018-02-08T16:04:40.528Z,53.95
2018-02-08T16:07:08.122Z,54.12
2018-02-08T16:09:35.669Z,54.50
2018-02-08T16:12:03.183Z,54.30
2018-02-08T16:14:30.708Z,54.59
2018-02-08T16:16:58.460Z,54.89
2018-02-08T16:19:25.968Z,54.87
2018-02-08T16:21:53.497Z,55.22
2018-02-08T16:24:21.044Z,55.28
2018-02-08T16:26:48.597Z,55.60
2018-02-08T16:29:16.172Z,55.60
2018-02-08T16:31:43.754Z,55.70
2018-02-08T16:34:11.372Z,55.94
2018-02-08T16:36:39.039Z,56.08
2018-02-08T16:39:06.615Z,56.24
2018-02-08T16:41:34.176Z,56.51
2018-02-08T16:44:01.722Z,56.47
2018-02-08T16:46:29.238Z,56.91
2018-02-08T16:48:56.786Z,56.92
2018-02-08T16:51:24.329Z,57.00
2018-02-08T16:53:51.867Z,56.92
2018-02-08T16:56:19.402Z,57.03
2018-02-08T16:58:46.931Z,57.20
2018-02-08T17:01:14.473Z,57.51
2018-02-08T17:03:42.030Z,57.54
2018-02-08T17:06:09.537Z,57.50
2018-02-08T17:08:37.053Z,57.55
2018-02-08T17:11:04.680Z,57.76
2018-02-08T17:13:32.245Z,57.61
2018-02-08T17:15:59.778Z,57.62
2018-02-08T17:18:27.441Z,57.55
2018-02-08T17:20:54.957Z,57.98
2018-02-08T17:23:22.465Z,58.08
2018-02-08T17:25:50.006Z,58.44
2018-02-08T17:28:17.540Z,58.88
2018-02-08T17:30:45.098Z,58.25
2018-02-08T17:33:12.629Z,58.43
2018-02-08T17:35:40.231Z,58.47
2018-02-08T17:38:07.791Z,58.23
2018-02-08T17:40:35.327Z,58.02
2018-02-08T17:43:02.843Z,58.18
2018-02-08T17:45:31.803Z,58.20
2018-02-08T17:47:59.332Z,58.65
2018-02-08T17:50:28.221Z,58.93
2018-02-08T17:52:55.832Z,59.39
2018-02-08T17:55:23.373Z,59.50
2018-02-08T17:57:50.941Z,59.50
2018-02-08T18:00:18.662Z,59.71
2018-02-08T18:02:46.203Z,59.98
2018-02-08T18:05:13.740Z,60.33
2018-02-08T18:07:41.341Z,60.36
2018-02-08T18:10:08.899Z,60.88
2018-02-08T18:12:36.425Z,61.04
2018-02-08T18:15:03.942Z,60.71
2018-02-08T18:17:31.521Z,60.97
2018-02-08T18:19:59.043Z,61.20
2018-02-08T18:22:26.556Z,61.12
2018-02-08T18:24:54.124Z,61.33
2018-02-08T18:27:21.644Z,61.59
2018-02-08T18:29:49.239Z,61.86
2018-02-08T18:32:16.798Z,62.47
2018-02-08T18:34:44.309Z,61.92
2018-02-08T18:37:11.858Z,61.47
2018-02-08T18:39:39.369Z,61.47
2018-02-08T18:42:06.905Z,61.22
2018-02-08T18:44:34.633Z,60.84
2018-02-08T18:47:02.174Z,61.07
2018-02-08T18:49:29.685Z,61.22
2018-02-08T18:51:57.334Z,61.85
2018-02-08T18:54:24.847Z,61.65
2018-02-08T18:56:52.360Z,61.73
2018-02-08T18:59:19.906Z,62.34
2018-02-08T19:01:47.556Z,62.04
2018-02-08T19:04:15.139Z,62.17
2018-02-08T19:06:42.677Z,62.34
2018-02-08T19:09:10.238Z,62.62
2018-02-08T19:11:37.779Z,62.58
2018-02-08T19:14:05.372Z,62.47
2018-02-08T19:16:32.882Z,62.48
2018-02-08T19:19:00.392Z,62.31
2018-02-08T19:21:27.936Z,62.22
2018-02-08T19:23:55.449Z,61.71
2018-02-08T19:26:22.983Z,61.59
2018-02-08T19:28:50.575Z,61.66
2018-02-08T19:31:18.163Z,62.13
2018-02-08T19:33:45.714Z,62.53
2018-02-08T19:36:13.273Z,62.52
2018-02-08T19:38:40.813Z,62.32
2018-02-08T19:41:08.329Z,61.91
2018-02-08T19:43:35.967Z,62.09
2018-02-08T19:46:03.491Z,62.48
2018-02-08T19:48:31.022Z,62.71
2018-02-08T19:50:58.569Z,62.90
2018-02-08T19:53:26.085Z,63.24
2018-02-08T19:55:53.626Z,63.72
2018-02-08T19:58:21.174Z,63.76
2018-02-08T20:00:48.794Z,63.68
2018-02-08T20:03:16.342Z,63.57
2018-02-08T20:05:43.887Z,63.74
2018-02-08T20:08:11.456Z,64.30
2018-02-08T20:10:39.249Z,64.21
2018-02-08T20:13:06.777Z,64.32
2018-02-08T20:15:34.736Z,64.25
2018-02-08T20:18:02.280Z,63.95
2018-02-08T20:20:30.021Z,64.09
2018-02-08T20:22:57.534Z,64.49
2018-02-08T20:25:31.028Z,64.63
2018-02-08T20:27:58.584Z,64.76
2018-02-08T20:30:26.123Z,65.52
2018-02-08T20:32:53.676Z,65.45
2018-02-08T20:35:21.235Z,65.81
2018-02-08T20:37:48.761Z,66.07
2018-02-08T20:40:22.321Z,65.82
2018-02-08T20:42:55.519Z,66.56
2018-02-08T20:45:23.073Z,67.39
2018-02-08T20:47:50.663Z,67.64
2018-02-08T20:50:18.409Z,68.22
2018-02-08T20:52:45.972Z,68.35
2018-02-08T20:55:13.505Z,68.50
2018-02-08T20:57:41.047Z,68.62
2018-02-08T21:00:08.584Z,68.63
2018-02-08T21:02:36.120Z,68.88
2018-02-08T21:05:03.795Z,68.81
2018-02-08T21:07:31.332Z,69.05
2018-02-08T21:09:58.881Z,69.25
2018-02-08T21:12:26.464Z,69.13
2018-02-08T21:14:54.006Z,68.94
2018-02-08T21:17:21.669Z,69.18
2018-02-08T21:19:49.237Z,69.42
2018-02-08T21:22:16.773Z,69.23
2018-02-08T21:24:44.453Z,69.27
2018-02-08T21:27:12.034Z,69.42
2018-02-08T21:29:39.564Z,70.80
2018-02-08T21:32:07.198Z,69.77
2018-02-08T21:34:34.713Z,69.56
2018-02-08T21:37:02.281Z,69.50
2018-02-08T21:39:29.946Z,69.65
2018-02-08T21:41:57.658Z,70.32
2018-02-08T21:44:25.183Z,70.31
2018-02-08T21:46:52.725Z,70.17
2018-02-08T21:49:20.273Z,70.15
2018-02-08T21:51:47.811Z,70.12
2018-02-08T21:54:15.473Z,70.57
2018-02-08T21:56:43.000Z,70.41
2018-02-08T21:59:10.546Z,70.41
2018-02-08T22:01:38.108Z,70.93
2018-02-08T22:04:05.657Z,70.67
2018-02-08T22:06:33.190Z,70.85
2018-02-08T22:09:00.753Z,70.80
2018-02-08T22:11:28.304Z,70.96
2018-02-08T22:13:55.829Z,71.13
2018-02-08T22:16:23.506Z,71.99
2018-02-08T22:18:51.079Z,71.30
2018-02-08T22:21:18.641Z,71.26
2018-02-08T22:23:46.162Z,71.46
2018-02-08T22:26:13.709Z,71.31
2018-02-08T22:28:41.249Z,71.49
2018-02-08T22:31:08.850Z,71.95
2018-02-08T22:33:36.392Z,71.88
2018-02-08T22:36:03.953Z,72.12
2018-02-08T22:38:31.477Z,71.84
2018-02-08T22:40:59.032Z,71.70
2018-02-08T22:43:26.593Z,71.71
2018-02-08T22:45:54.128Z,71.93
2018-02-08T22:48:21.675Z,72.03
2018-02-08T22:50:49.236Z,72.21
2018-02-08T22:53:16.790Z,72.15
2018-02-08T22:55:44.382Z,72.34
2018-02-08T22:58:11.937Z,72.24
2018-02-08T23:00:39.473Z,72.38
2018-02-08T23:03:07.076Z,72.42
2018-02-08T23:05:34.614Z,72.22
2018-02-08T23:08:02.145Z,72.10
2018-02-08T23:10:29.815Z,71.97
2018-02-08T23:12:57.352Z,72.05
2018-02-08T23:15:24.934Z,72.10
2018-02-08T23:17:52.613Z,72.17
2018-02-08T23:20:20.129Z,72.30
2018-02-08T23:22:47.713Z,72.49
2018-02-08T23:25:15.264Z,72.20
2018-02-08T23:27:42.793Z,72.48
2018-02-08T23:30:10.337Z,72.23
2018-02-08T23:32:37.894Z,72.28
2018-02-08T23:35:05.442Z,72.90
2018-02-08T23:37:33.014Z,72.46
2018-02-08T23:40:00.665Z,72.42
2018-02-08T23:42:28.206Z,72.55
2018-02-08T23:44:55.725Z,72.70
2018-02-08T23:47:23.313Z,72.83
2018-02-08T23:49:50.880Z,73.04
2018-02-08T23:52:18.401Z,72.76
2018-02-08T23:54:45.989Z,72.96
2018-02-08T23:57:13.544Z,72.74
2018-02-08T23:59:41.218Z,72.95
